createdAt,value
2023-03-17T00:01:10.500Z,3.63
2023-03-17T00:03:40.688Z,2.80
2023-03-17T00:06:16.207Z,2.53
2023-03-17T00:08:43.557Z,2.92
2023-03-17T00:11:13.781Z,2.75
2023-03-17T00:13:42.744Z,2.58
2023-03-17T00:16:19.288Z,2.97
2023-03-17T00:18:46.996Z,2.67
2023-03-17T00:21:15.393Z,2.78
2023-03-17T00:23:45.920Z,2.63
2023-03-17T00:26:12.639Z,2.20
2023-03-17T00:28:39.446Z,3.00
2023-03-17T00:31:18.240Z,2.38
2023-03-17T00:33:46.586Z,2.63
2023-03-17T00:36:22.658Z,2.37
2023-03-17T00:38:49.733Z,3.05
2023-03-17T00:41:16.686Z,2.22
2023-03-17T00:43:43.255Z,2.33
2023-03-17T00:46:16.665Z,2.45
2023-03-17T00:48:45.454Z,2.72
2023-03-17T00:51:13.028Z,1.92
2023-03-17T00:53:39.950Z,3.47
2023-03-17T00:56:14.534Z,2.67
2023-03-17T00:58:42.145Z,2.42
2023-03-17T01:01:09.182Z,2.72
2023-03-17T01:03:35.855Z,3.83
2023-03-17T01:06:04.846Z,3.60
2023-03-17T01:08:32.049Z,2.45
2023-03-17T01:10:59.590Z,2.30
2023-03-17T01:13:26.728Z,2.70
2023-03-17T01:15:54.041Z,2.08
2023-03-17T01:18:22.829Z,1.92
2023-03-17T01:20:50.685Z,2.88
2023-03-17T01:23:17.870Z,2.70
2023-03-17T01:25:45.497Z,2.85
2023-03-17T01:28:18.134Z,2.15
2023-03-17T01:30:45.195Z,2.75
2023-03-17T01:33:13.500Z,3.10
2023-03-17T01:35:41.435Z,2.73
2023-03-17T01:38:09.067Z,2.53
2023-03-17T01:40:42.529Z,2.92
2023-03-17T01:43:09.054Z,2.28
2023-03-17T01:46:13.106Z,2.70
2023-03-17T01:48:51.181Z,2.63
2023-03-17T01:51:27.686Z,2.83
2023-03-17T01:53:55.198Z,2.35
2023-03-17T01:56:22.219Z,2.58
2023-03-17T01:58:52.090Z,2.10
2023-03-17T02:01:24.169Z,2.72
2023-03-17T02:03:52.043Z,2.95
2023-03-17T02:06:18.784Z,2.30
2023-03-17T02:08:46.350Z,2.58
2023-03-17T02:11:13.040Z,1.95
2023-03-17T02:13:41.909Z,2.78
2023-03-17T02:16:15.862Z,2.35
2023-03-17T02:18:43.317Z,2.25
2023-03-17T02:21:55.583Z,2.70
2023-03-17T02:24:32.046Z,2.67
2023-03-17T02:27:03.959Z,2.83
2023-03-17T02:29:34.058Z,2.40
2023-03-17T02:32:01.216Z,2.70
2023-03-17T02:34:27.774Z,2.38
2023-03-17T02:36:54.354Z,2.40
2023-03-17T02:39:21.523Z,2.25
2023-03-17T02:41:48.231Z,2.53
2023-03-17T02:44:14.718Z,2.80
2023-03-17T02:46:41.506Z,2.63
2023-03-17T02:49:08.426Z,3.38
2023-03-17T02:51:35.529Z,1.60
2023-03-17T02:54:02.133Z,2.33
2023-03-17T02:56:28.670Z,2.13
2023-03-17T02:58:55.815Z,2.42
2023-03-17T03:01:22.505Z,2.05
2023-03-17T03:03:49.577Z,2.70
2023-03-17T03:06:16.853Z,2.05
2023-03-17T03:08:43.474Z,2.15
2023-03-17T03:11:10.040Z,2.25
2023-03-17T03:13:37.216Z,2.13
2023-03-17T03:16:04.696Z,2.42
2023-03-17T03:18:31.400Z,2.38
2023-03-17T03:20:57.922Z,1.90
2023-03-17T03:23:24.504Z,2.28
2023-03-17T03:25:51.490Z,2.45
2023-03-17T03:28:18.532Z,2.42
2023-03-17T03:30:45.893Z,3.08
2023-03-17T03:33:14.013Z,2.38
2023-03-17T03:35:41.403Z,1.67
2023-03-17T03:38:08.742Z,2.15
2023-03-17T03:40:36.567Z,2.22
2023-03-17T03:43:13.041Z,1.90
2023-03-17T03:45:48.989Z,2.38
2023-03-17T03:48:15.581Z,1.75
2023-03-17T03:50:42.103Z,2.45
2023-03-17T03:53:08.621Z,2.25
2023-03-17T03:55:35.613Z,2.60
2023-03-17T03:58:02.202Z,1.98
2023-03-17T04:00:29.161Z,2.13
2023-03-17T04:02:55.905Z,2.47
2023-03-17T04:05:22.527Z,2.58
2023-03-17T04:07:49.085Z,2.90
2023-03-17T04:10:16.375Z,2.17
2023-03-17T04:12:43.442Z,1.95
2023-03-17T04:15:14.039Z,2.67
2023-03-17T04:17:41.141Z,2.15
2023-03-17T04:20:08.758Z,1.98
2023-03-17T04:22:35.268Z,2.08
2023-03-17T04:25:01.916Z,3.05
2023-03-17T04:27:28.748Z,2.75
2023-03-17T04:29:55.400Z,2.30
2023-03-17T04:32:22.083Z,1.90
2023-03-17T04:34:48.592Z,2.92
2023-03-17T04:37:15.754Z,2.00
2023-03-17T04:39:42.347Z,3.00
2023-03-17T04:42:09.085Z,1.73
2023-03-17T04:44:35.608Z,2.90
2023-03-17T04:47:02.467Z,2.13
2023-03-17T04:49:29.269Z,2.67
2023-03-17T04:51:55.851Z,1.92
2023-03-17T04:54:22.492Z,2.20
2023-03-17T04:56:49.085Z,2.00
2023-03-17T04:59:16.261Z,1.98
2023-03-17T05:01:42.949Z,2.20
2023-03-17T05:04:11.163Z,1.98
2023-03-17T05:06:39.978Z,1.77
2023-03-17T05:09:06.746Z,3.08
2023-03-17T05:11:33.356Z,2.67
2023-03-17T05:14:00.020Z,2.40
2023-03-17T05:16:26.781Z,2.53
2023-03-17T05:18:53.595Z,2.22
2023-03-17T05:21:20.382Z,2.35
2023-03-17T05:23:46.980Z,2.88
2023-03-17T05:26:13.521Z,1.88
2023-03-17T05:28:40.109Z,2.70
2023-03-17T05:31:08.298Z,3.38
2023-03-17T05:33:37.168Z,1.90
2023-03-17T05:36:04.007Z,2.03
2023-03-17T05:38:30.676Z,2.35
2023-03-17T05:40:57.997Z,2.03
2023-03-17T05:43:24.596Z,2.60
2023-03-17T05:45:51.165Z,2.40
2023-03-17T05:48:17.923Z,1.95
2023-03-17T05:50:44.575Z,2.88
2023-03-17T05:53:11.267Z,2.72
2023-03-17T05:55:37.860Z,2.45
2023-03-17T05:58:06.447Z,2.13
2023-03-17T06:00:33.426Z,2.20
2023-03-17T06:03:00.195Z,2.22
2023-03-17T06:05:27.124Z,2.03
2023-03-17T06:07:56.405Z,2.65
2023-03-17T06:10:24.433Z,2.80
2023-03-17T06:12:51.475Z,3.58
2023-03-17T06:15:18.972Z,2.78
2023-03-17T06:17:45.779Z,2.38
2023-03-17T06:20:14.175Z,2.05
2023-03-17T06:22:55.162Z,3.33
2023-03-17T06:25:27.225Z,3.17
2023-03-17T06:27:56.099Z,2.63
2023-03-17T06:30:22.676Z,2.25
2023-03-17T06:32:50.293Z,2.88
2023-03-17T06:35:17.999Z,1.83
2023-03-17T06:37:44.930Z,2.50
2023-03-17T06:40:12.620Z,1.92
2023-03-17T06:42:39.402Z,2.30
2023-03-17T06:45:06.523Z,2.63
2023-03-17T06:47:34.166Z,2.55
2023-03-17T06:50:00.838Z,2.83
2023-03-17T06:52:27.830Z,2.63
2023-03-17T06:54:54.418Z,2.60
2023-03-17T06:57:21.190Z,2.38
2023-03-17T06:59:47.809Z,3.10
2023-03-17T07:02:14.710Z,3.40
2023-03-17T07:04:41.569Z,3.63
2023-03-17T07:07:08.397Z,4.65
2023-03-17T07:09:35.517Z,4.55
2023-03-17T07:12:06.103Z,3.67
2023-03-17T07:14:35.526Z,3.17
2023-03-17T07:17:06.273Z,3.55
2023-03-17T07:19:35.130Z,4.25
2023-03-17T07:24:28.307Z,4.43
2023-03-17T07:26:54.940Z,4.13
2023-03-17T07:29:22.758Z,3.28
2023-03-17T07:31:50.219Z,3.20
2023-03-17T07:34:16.976Z,3.65
2023-03-17T07:36:43.540Z,3.13
2023-03-17T07:39:12.116Z,3.05
2023-03-17T07:44:05.412Z,3.92
2023-03-17T07:46:32.653Z,3.47
2023-03-17T07:48:59.328Z,3.10
2023-03-17T07:51:28.110Z,3.10
2023-03-17T07:54:03.621Z,3.28
2023-03-17T07:56:31.890Z,3.10
2023-03-17T07:58:59.218Z,3.30
2023-03-17T08:01:27.066Z,2.97
2023-03-17T08:03:54.181Z,3.63
2023-03-17T08:06:21.755Z,4.00
2023-03-17T08:08:48.514Z,4.05
2023-03-17T08:11:15.727Z,3.90
2023-03-17T08:13:42.408Z,3.63
2023-03-17T08:16:09.792Z,3.47
2023-03-17T08:18:38.723Z,4.03
2023-03-17T08:21:06.244Z,3.30
2023-03-17T08:23:33.265Z,3.37
2023-03-17T08:26:01.840Z,3.88
2023-03-17T08:28:28.839Z,3.55
2023-03-17T08:31:05.522Z,3.40
2023-03-17T08:33:32.519Z,3.05
2023-03-17T08:35:59.237Z,1.77
2023-03-17T08:38:26.080Z,2.20
2023-03-17T08:40:52.831Z,3.42
2023-03-17T08:43:22.882Z,2.40
2023-03-17T08:45:49.545Z,3.28
2023-03-17T08:48:16.171Z,2.55
2023-03-17T08:50:42.732Z,2.10
2023-03-17T08:53:09.601Z,6.72
2023-03-17T08:55:37.507Z,1.92
2023-03-17T08:58:05.330Z,1.98
2023-03-17T09:00:32.107Z,3.80
2023-03-17T09:02:59.215Z,3.40
2023-03-17T09:05:26.768Z,2.83
2023-03-17T09:07:53.602Z,2.80
2023-03-17T09:10:22.788Z,4.53
2023-03-17T09:12:53.402Z,2.38
2023-03-17T09:15:21.290Z,1.95
2023-03-17T09:17:47.932Z,2.17
2023-03-17T09:20:14.623Z,2.45
2023-03-17T09:22:42.473Z,2.22
2023-03-17T09:25:09.235Z,2.20
2023-03-17T09:27:36.380Z,2.45
2023-03-17T09:30:03.132Z,2.92
2023-03-17T09:32:29.896Z,2.92
2023-03-17T09:34:57.614Z,2.47
2023-03-17T09:37:24.340Z,2.13
2023-03-17T09:39:51.258Z,2.42
2023-03-17T09:42:27.099Z,3.13
2023-03-17T09:45:23.280Z,3.28
2023-03-17T09:48:39.241Z,2.22
2023-03-17T09:51:11.632Z,2.35
2023-03-17T09:53:56.904Z,2.42
2023-03-17T09:56:24.761Z,4.80
2023-03-17T09:58:57.778Z,2.97
2023-03-17T10:01:24.991Z,2.38
2023-03-17T10:03:52.166Z,2.42
2023-03-17T10:06:39.265Z,3.58
2023-03-17T10:09:28.394Z,2.67
2023-03-17T10:12:02.358Z,2.08
2023-03-17T10:14:44.792Z,2.67
2023-03-17T10:17:21.114Z,3.08
2023-03-17T10:19:54.961Z,3.55
2023-03-17T10:22:35.712Z,2.42
2023-03-17T10:25:07.692Z,3.53
2023-03-17T10:27:37.293Z,3.20
2023-03-17T10:30:05.700Z,3.50
2023-03-17T10:32:38.207Z,2.63
2023-03-17T10:35:05.599Z,2.45
2023-03-17T10:37:36.625Z,2.90
2023-03-17T10:40:10.367Z,2.63
2023-03-17T10:42:47.905Z,3.03
2023-03-17T10:45:27.861Z,2.38
2023-03-17T10:47:57.405Z,2.67
2023-03-17T10:50:31.414Z,3.72
2023-03-17T10:53:04.567Z,3.67
2023-03-17T10:55:44.986Z,2.95
2023-03-17T10:58:40.023Z,3.38
2023-03-17T11:01:16.305Z,3.38
2023-03-17T11:03:43.145Z,3.15
2023-03-17T11:06:15.897Z,2.88
2023-03-17T11:08:59.202Z,2.78
2023-03-17T11:11:30.432Z,3.38
2023-03-17T11:14:13.459Z,3.70
2023-03-17T11:16:53.651Z,3.22
2023-03-17T11:19:27.178Z,2.88
2023-03-17T11:22:20.802Z,3.25
2023-03-17T11:25:04.357Z,3.13
2023-03-17T11:27:38.912Z,3.10
2023-03-17T11:30:36.133Z,2.50
2023-03-17T11:33:02.756Z,2.92
2023-03-17T11:35:45.050Z,2.92
2023-03-17T11:38:30.200Z,3.03
2023-03-17T11:41:05.462Z,2.83
2023-03-17T11:43:45.406Z,2.83
2023-03-17T11:46:42.765Z,3.70
2023-03-17T11:49:16.439Z,2.42
2023-03-17T11:51:56.598Z,3.20
2023-03-17T11:55:00.429Z,3.50
2023-03-17T11:57:39.105Z,3.05
2023-03-17T12:02:49.439Z,3.72
2023-03-17T12:05:23.075Z,3.38
2023-03-17T12:07:55.381Z,3.33
2023-03-17T12:10:34.019Z,2.83
2023-03-17T12:16:09.968Z,4.13
2023-03-17T12:18:49.342Z,3.45
2023-03-17T12:21:47.609Z,2.95
2023-03-17T12:24:22.594Z,3.53
2023-03-17T12:27:05.057Z,3.60
2023-03-17T12:29:43.751Z,3.22
2023-03-17T12:34:58.269Z,3.67
2023-03-17T12:37:27.640Z,4.00
2023-03-17T12:40:01.760Z,3.17
2023-03-17T12:42:42.592Z,3.70
2023-03-17T12:45:22.403Z,3.50
2023-03-17T12:48:03.459Z,4.15
2023-03-17T12:50:33.084Z,3.78
2023-03-17T12:53:11.799Z,3.72
2023-03-17T12:58:22.285Z,4.28
2023-03-17T13:00:56.195Z,3.60
2023-03-17T13:03:28.289Z,4.18
2023-03-17T13:06:00.763Z,4.57
2023-03-17T13:08:36.636Z,3.97
2023-03-17T13:11:45.493Z,3.50
2023-03-17T13:14:44.321Z,3.78
2023-03-17T13:17:16.981Z,3.90
2023-03-17T13:19:55.331Z,3.53
2023-03-17T13:22:21.854Z,3.83
2023-03-17T13:24:53.525Z,3.75
2023-03-17T13:27:32.396Z,3.60
2023-03-17T13:30:26.927Z,3.95
2023-03-17T13:33:23.728Z,4.28
2023-03-17T13:36:11.974Z,3.38
2023-03-17T13:39:18.216Z,4.22
2023-03-17T13:42:17.644Z,4.17
2023-03-17T13:44:57.355Z,4.25
2023-03-17T13:47:27.140Z,4.15
2023-03-17T13:50:00.571Z,4.00
2023-03-17T13:52:41.138Z,3.70
2023-03-17T13:55:23.702Z,4.43
2023-03-17T13:58:11.860Z,4.07
2023-03-17T14:00:47.584Z,4.35
2023-03-17T14:03:29.125Z,3.50
2023-03-17T14:05:56.417Z,4.22
2023-03-17T14:08:33.476Z,3.38
2023-03-17T14:11:03.814Z,4.05
2023-03-17T14:13:45.889Z,4.32
2023-03-17T14:16:47.689Z,3.90
2023-03-17T14:19:23.115Z,4.25
2023-03-17T14:21:50.131Z,4.20
2023-03-17T14:24:33.375Z,4.05
2023-03-17T14:27:09.513Z,4.05
2023-03-17T14:29:37.383Z,3.53
2023-03-17T14:32:07.150Z,3.77
2023-03-17T14:34:33.979Z,3.75
2023-03-17T14:37:02.510Z,3.80
2023-03-17T14:39:29.600Z,4.68
2023-03-17T14:42:14.350Z,4.30
2023-03-17T14:44:43.070Z,4.25
2023-03-17T14:49:41.637Z,4.38
2023-03-17T14:52:37.139Z,5.35
2023-03-17T14:55:05.535Z,4.88
2023-03-17T14:57:33.210Z,4.55
2023-03-17T15:00:31.988Z,4.57
2023-03-17T15:03:02.162Z,5.28
2023-03-17T15:05:41.004Z,4.10
2023-03-17T15:08:36.643Z,4.15
2023-03-17T15:11:06.167Z,4.97
2023-03-17T15:13:35.471Z,4.38
2023-03-17T15:16:22.342Z,4.50
2023-03-17T15:18:57.340Z,4.22
2023-03-17T15:21:32.182Z,4.47
2023-03-17T15:24:04.627Z,3.85
2023-03-17T15:26:31.644Z,4.30
2023-03-17T15:29:00.031Z,4.57
2023-03-17T15:31:29.532Z,4.75
2023-03-17T15:33:57.514Z,5.03
2023-03-17T15:36:32.307Z,5.00
2023-03-17T15:38:59.827Z,4.95
2023-03-17T15:41:26.431Z,4.50
2023-03-17T15:43:53.727Z,4.53
2023-03-17T15:46:31.239Z,4.95
2023-03-17T15:48:58.366Z,4.50
2023-03-17T15:51:24.923Z,4.65
2023-03-17T15:53:51.529Z,4.10
2023-03-17T15:56:20.698Z,4.88
2023-03-17T15:58:49.226Z,4.18
2023-03-17T16:01:16.671Z,4.65
2023-03-17T16:03:45.485Z,4.28
2023-03-17T16:08:46.221Z,4.03
2023-03-17T16:11:19.169Z,4.70
2023-03-17T16:13:47.375Z,4.95
2023-03-17T16:16:19.629Z,3.55
2023-03-17T16:18:47.852Z,4.25
2023-03-17T16:21:14.609Z,4.10
2023-03-17T16:23:41.543Z,4.10
2023-03-17T16:26:15.699Z,3.90
2023-03-17T16:28:45.638Z,4.90
2023-03-17T16:31:17.063Z,4.45
2023-03-17T16:33:44.060Z,4.38
2023-03-17T16:36:15.949Z,5.85
2023-03-17T16:38:42.930Z,4.88
2023-03-17T16:41:17.126Z,4.47
2023-03-17T16:43:50.986Z,5.35
2023-03-17T16:46:19.593Z,3.78
2023-03-17T16:48:48.440Z,5.45
2023-03-17T16:53:42.137Z,4.35
2023-03-17T16:56:16.783Z,4.38
2023-03-17T16:58:44.200Z,4.55
2023-03-17T17:01:21.148Z,4.90
2023-03-17T17:03:48.886Z,4.75
2023-03-17T17:06:16.322Z,4.40
2023-03-17T17:08:44.244Z,4.55
2023-03-17T17:11:13.062Z,4.50
2023-03-17T17:16:37.323Z,5.72
2023-03-17T17:19:08.980Z,4.45
2023-03-17T17:21:35.597Z,4.60
2023-03-17T17:24:02.226Z,4.50
2023-03-17T17:26:28.804Z,4.93
2023-03-17T17:28:55.471Z,4.68
2023-03-17T17:31:22.125Z,4.68
2023-03-17T17:33:48.740Z,4.47
2023-03-17T17:36:17.138Z,4.32
2023-03-17T17:38:44.150Z,4.30
2023-03-17T17:41:12.446Z,4.40
2023-03-17T17:43:39.631Z,3.92
2023-03-17T17:46:22.928Z,4.43
2023-03-17T17:48:50.094Z,4.07
2023-03-17T17:51:16.870Z,4.43
2023-03-17T17:53:44.340Z,3.53
2023-03-17T17:56:18.128Z,3.97
2023-03-17T17:58:45.145Z,4.25
2023-03-17T18:01:14.024Z,4.65
2023-03-17T18:03:42.704Z,4.72
2023-03-17T18:06:09.483Z,4.22
2023-03-17T18:08:36.082Z,4.53
2023-03-17T18:11:02.782Z,5.15
2023-03-17T18:13:29.561Z,5.20
2023-03-17T18:15:56.336Z,6.40
2023-03-17T18:18:22.918Z,5.38
2023-03-17T18:20:49.678Z,6.07
2023-03-17T18:23:16.557Z,7.35
2023-03-17T18:25:43.085Z,6.63
2023-03-17T18:28:09.636Z,6.55
2023-03-17T18:30:36.267Z,6.40
2023-03-17T18:33:16.431Z,6.95
2023-03-17T18:35:46.152Z,6.10
2023-03-17T18:38:12.873Z,7.03
2023-03-17T18:40:41.118Z,6.78
2023-03-17T18:43:07.722Z,7.22
2023-03-17T18:45:34.364Z,5.53
2023-03-17T18:48:01.016Z,6.55
2023-03-17T18:50:27.611Z,6.90
2023-03-17T18:52:55.701Z,7.57
2023-03-17T18:55:22.260Z,7.50
2023-03-17T18:57:48.863Z,7.40
2023-03-17T19:00:17.463Z,6.43
2023-03-17T19:02:44.826Z,6.25
2023-03-17T19:05:12.850Z,7.18
2023-03-17T19:07:40.692Z,7.63
2023-03-17T19:10:08.398Z,8.18
2023-03-17T19:12:35.362Z,7.72
2023-03-17T19:15:01.941Z,7.63
2023-03-17T19:17:28.685Z,7.65
2023-03-17T19:19:55.907Z,7.63
2023-03-17T19:22:22.515Z,8.23
2023-03-17T19:24:50.235Z,7.07
2023-03-17T19:27:17.899Z,7.15
2023-03-17T19:29:44.590Z,7.45
2023-03-17T19:32:11.199Z,10.20
2023-03-17T19:34:37.727Z,8.10
2023-03-17T19:37:04.453Z,8.23
2023-03-17T19:39:31.527Z,9.07
2023-03-17T19:41:59.264Z,7.97
2023-03-17T19:44:26.346Z,7.20
2023-03-17T19:46:52.919Z,7.20
2023-03-17T19:49:21.207Z,6.93
2023-03-17T19:51:49.076Z,7.20
2023-03-17T19:54:15.867Z,7.18
2023-03-17T19:56:42.574Z,6.97
2023-03-17T19:59:09.382Z,6.63
2023-03-17T20:01:37.927Z,6.40
2023-03-17T20:04:06.832Z,7.25
2023-03-17T20:09:04.099Z,7.68
2023-03-17T20:11:33.968Z,9.30
2023-03-17T20:14:02.300Z,7.32
2023-03-17T20:16:32.697Z,7.82
2023-03-17T20:19:00.398Z,8.70
2023-03-17T20:21:27.175Z,8.90
2023-03-17T20:23:53.796Z,7.30
2023-03-17T20:26:20.598Z,8.43
2023-03-17T20:28:47.492Z,6.88
2023-03-17T20:31:14.588Z,5.40
2023-03-17T20:33:41.993Z,7.03
2023-03-17T20:36:09.436Z,7.18
2023-03-17T20:38:39.247Z,7.85
2023-03-17T20:41:07.984Z,7.00
2023-03-17T20:43:37.393Z,6.90
2023-03-17T20:46:05.954Z,7.00
2023-03-17T20:48:33.000Z,8.40
2023-03-17T20:51:00.460Z,7.60
2023-03-17T20:53:28.172Z,5.80
2023-03-17T20:55:55.472Z,7.03
2023-03-17T20:58:22.097Z,8.32
2023-03-17T21:00:50.429Z,7.68
2023-03-17T21:03:17.973Z,8.20
2023-03-17T21:05:45.935Z,8.55
2023-03-17T21:08:12.618Z,8.90
2023-03-17T21:10:39.481Z,7.80
2023-03-17T21:13:06.613Z,8.20
2023-03-17T21:15:33.403Z,10.30
2023-03-17T21:18:00.014Z,8.07
2023-03-17T21:20:27.371Z,6.78
2023-03-17T21:22:53.942Z,7.40
2023-03-17T21:25:20.521Z,8.13
2023-03-17T21:27:47.151Z,7.40
2023-03-17T21:30:14.476Z,8.40
2023-03-17T21:32:41.837Z,8.80
2023-03-17T21:35:08.874Z,8.00
2023-03-17T21:37:35.492Z,9.57
2023-03-17T21:40:02.344Z,10.15
2023-03-17T21:42:29.123Z,9.82
2023-03-17T21:44:55.778Z,10.73
2023-03-17T21:47:22.288Z,11.88
2023-03-17T21:49:48.910Z,9.98
2023-03-17T21:52:16.044Z,13.40
2023-03-17T21:54:42.679Z,17.13
2023-03-17T21:57:11.770Z,13.45
2023-03-17T21:59:38.702Z,11.95
2023-03-17T22:02:05.576Z,8.43
2023-03-17T22:04:32.096Z,8.70
2023-03-17T22:06:59.003Z,8.82
2023-03-17T22:09:26.163Z,7.47
2023-03-17T22:11:52.736Z,7.80
2023-03-17T22:14:20.750Z,7.03
2023-03-17T22:16:48.432Z,7.80
2023-03-17T22:19:15.664Z,6.18
2023-03-17T22:21:42.848Z,7.63
2023-03-17T22:24:10.118Z,7.82
2023-03-17T22:26:36.917Z,8.00
2023-03-17T22:29:03.969Z,6.85
2023-03-17T22:31:30.954Z,7.72
2023-03-17T22:33:59.238Z,7.05
2023-03-17T22:36:27.106Z,7.27
2023-03-17T22:38:54.239Z,6.85
2023-03-17T22:41:23.471Z,7.30
2023-03-17T22:43:50.810Z,7.78
2023-03-17T22:46:18.034Z,7.72
2023-03-17T22:48:46.207Z,7.57
2023-03-17T22:51:16.792Z,7.68
2023-03-17T22:53:43.868Z,7.28
2023-03-17T22:56:12.326Z,6.72
2023-03-17T22:58:39.199Z,7.63
2023-03-17T23:01:09.053Z,7.25
2023-03-17T23:03:35.941Z,6.22
2023-03-17T23:06:04.795Z,6.00
2023-03-17T23:08:35.168Z,6.30
2023-03-17T23:11:05.948Z,6.35
2023-03-17T23:13:33.879Z,6.82
2023-03-17T23:16:00.665Z,6.88
2023-03-17T23:18:27.264Z,7.28
2023-03-17T23:20:53.888Z,9.75
2023-03-17T23:23:20.622Z,7.80
2023-03-17T23:25:47.428Z,6.28
2023-03-17T23:28:15.590Z,6.22
2023-03-17T23:30:43.898Z,7.80
2023-03-17T23:33:10.705Z,6.40
2023-03-17T23:35:38.081Z,6.85
2023-03-17T23:38:04.686Z,7.65
2023-03-17T23:40:32.010Z,8.23
2023-03-17T23:42:58.800Z,7.43
2023-03-17T23:45:25.375Z,7.80
2023-03-17T23:47:52.664Z,6.95
2023-03-17T23:50:20.176Z,6.60
2023-03-17T23:52:48.189Z,8.00
2023-03-17T23:55:16.696Z,6.25
2023-03-17T23:57:44.154Z,8.00
